Aviation Digital Data Service (ADDS)

Output produced by METARs form (1417 UTC 15 November 2018)
found at http://aviationweather.gov/metar/data/
 
METAR text: UBBG 151400Z 29006KT 2000 DZ BR OVC003 07/06 Q1020 R30/290060 NOSIG
Conditions at: UBBG (GYANDZHA , AZ) observed 1400 UTC 15 November 2018
Temperature: 7.0°C (45°F)
Dewpoint: 6.0°C (43°F) [RH = 93%]
Pressure (altimeter): 30.12 inches Hg (1020.0 mb)
Winds: from the WNW (290 degrees) at 7 MPH (6 knots; 3.1 m/s)
Visibility: 1.24 miles (2.00 km)
Ceiling: 300 feet AGL
Clouds: overcast cloud deck at 300 feet AGL
Weather: DZ BR  (moderate drizzle, mist)

METAR text: UBBG 151330Z 29006KT 3000 -DZ BR OVC004 07/06 Q1020 R30/290060 NOSIG
Conditions at: UBBG (GYANDZHA , AZ) observed 1330 UTC 15 November 2018
Temperature: 7.0°C (45°F)
Dewpoint: 6.0°C (43°F) [RH = 93%]
Pressure (altimeter): 30.12 inches Hg (1020.0 mb)
Winds: from the WNW (290 degrees) at 7 MPH (6 knots; 3.1 m/s)
Visibility: 1.86 miles (2.99 km)
Ceiling: 400 feet AGL
Clouds: overcast cloud deck at 400 feet AGL
Weather: -DZ BR  (light drizzle, mist)

Forecast for: UBBG (GYANDZHA , AZ)
Text: TAF UBBG 151100Z 1512/1612 28008KT 4000 BR BKN005 OVC020 TX07/1512Z TN05/1603Z
Forecast period: 1200 UTC 15 November 2018 to 1200 UTC 16 November 2018
Forecast type: FROM: standard forecast or significant change
Winds: from the W (280 degrees) at 9 MPH (8 knots; 4.1 m/s)
Visibility: 2.49 miles (4.01 km)
Ceiling: 500 feet AGL
Clouds: broken clouds at 500 feet AGL
overcast cloud deck at 2000 feet AGL
Weather: BR  (mist)
Text: TEMPO 1514/1520 VRB02KT 0800 -DZ FG VV002
Forecast period: 1400 to 2000 UTC 15 November 2018
Forecast type: TEMPORARY: The following changes expected for less than half the time period
Winds: variable direction winds at 2 MPH (2 knots; 1.0 m/s)
Visibility: 0.50 miles (0.80 km)
Ceiling: indefinite ceiling with vertical visibility of 200 feet AGL
Clouds: obscured sky
Weather: -DZ FG  (light drizzle, fog)